Time;durP1;ratioP1;P1;durP2;ratioP2;P2;SDS_P1;SDS_P2;PMS_P1;PMS_P2;Temp;Humidity;BMP_temperature;BMP_pressure;BME280_temperature;BME280_humidity;BME280_pressure;Samples;Min_cycle;Max_cycle;Signal;HPM_P1;HPM_P2
2021/12/29 00:00:16;;;;;;;4.45;3.15;;;;;;;20.60;37.78;99748.69;5061335;28;20530;-64
2021/12/29 00:02:41;;;;;;;3.97;3.05;;;;;;;20.62;37.72;99746.66;5060281;28;20032;-64
2021/12/29 00:05:08;;;;;;;4.53;3.35;;;;;;;20.46;38.01;99754.03;5062244;28;20042;-64
2021/12/29 00:07:34;;;;;;;5.03;3.40;;;;;;;20.46;38.08;99754.03;5052442;28;20071;-64
2021/12/29 00:10:01;;;;;;;5.50;3.00;;;;;;;20.42;38.07;99763.41;5055663;28;20063;-64
2021/12/29 00:12:27;;;;;;;3.90;2.75;;;;;;;20.17;38.12;99736.84;5059491;28;20033;-64
2021/12/29 00:14:54;;;;;;;5.13;3.70;;;;;;;20.17;38.29;99763.25;5059949;28;20055;-64
2021/12/29 00:17:20;;;;;;;4.05;2.80;;;;;;;20.29;38.27;99781.13;5058301;28;20083;-64
2021/12/29 00:19:46;;;;;;;4.22;2.70;;;;;;;20.25;38.31;99783.38;5055542;28;20058;-64
2021/12/29 00:22:12;;;;;;;4.53;2.97;;;;;;;20.25;38.38;99777.28;5038144;28;20627;-64
2021/12/29 00:24:38;;;;;;;3.83;2.80;;;;;;;20.26;38.29;99776.25;5058542;28;20052;-64
2021/12/29 00:27:05;;;;;;;4.25;3.10;;;;;;;20.26;38.27;99781.53;5055752;28;20037;-64
2021/12/29 00:29:31;;;;;;;4.30;2.88;;;;;;;20.22;38.27;99791.72;5027954;28;20509;-64
2021/12/29 00:32:20;;;;;;;3.85;2.95;;;;;;;20.22;38.22;99797.00;5040337;28;20066;-64
2021/12/29 00:35:21;;;;;;;4.07;3.38;;;;;;;20.15;38.35;99796.22;4992217;28;20037;-64
2021/12/29 00:38:24;;;;;;;5.07;3.20;;;;;;;20.13;38.34;99804.34;5015605;28;20053;-64
2021/12/29 00:41:08;;;;;;;4.60;3.03;;;;;;;20.18;38.37;99819.59;5014933;28;20080;-64
2021/12/29 00:43:55;;;;;;;3.30;2.72;;;;;;;20.09;38.50;99810.22;5012304;28;20613;-64
2021/12/29 00:46:55;;;;;;;5.15;3.15;;;;;;;20.08;38.44;99813.91;5036680;28;20811;-63
2021/12/29 00:49:22;;;;;;;3.60;2.50;;;;;;;20.04;38.57;99812.69;5052328;28;20044;-66
2021/12/29 00:51:49;;;;;;;3.40;2.67;;;;;;;20.00;38.67;99822.06;5039053;28;20044;-64
2021/12/29 00:54:15;;;;;;;4.03;2.60;;;;;;;20.00;38.59;99822.06;5054763;28;20033;-64
2021/12/29 00:56:40;;;;;;;4.45;2.83;;;;;;;20.00;38.49;99832.63;5055925;28;20044;-66
2021/12/29 00:59:06;;;;;;;5.20;3.13;;;;;;;19.99;38.59;99845.03;5024636;28;20101;-63
2021/12/29 01:01:31;;;;;;;4.07;2.70;;;;;;;19.98;38.57;99843.41;5060747;28;20040;-66
2021/12/29 01:03:57;;;;;;;3.80;2.65;;;;;;;19.98;38.58;99858.44;5061482;28;20032;-63
2021/12/29 01:06:23;;;;;;;5.38;2.65;;;;;;;19.92;38.78;99865.31;5062280;28;20109;-64
2021/12/29 01:08:49;;;;;;;3.58;2.47;;;;;;;19.94;38.67;99871.25;5057635;28;20040;-64
2021/12/29 01:11:15;;;;;;;3.33;2.38;;;;;;;19.96;38.54;99873.69;5053322;28;20083;-64
2021/12/29 01:13:47;;;;;;;2.80;2.40;;;;;;;19.90;38.61;99875.28;5058094;28;20162;-63
2021/12/29 01:19:07;;;;;;;4.10;2.67;;;;;;;19.94;38.56;99881.81;5054488;28;20776;-64
2021/12/29 01:21:34;;;;;;;4.68;2.75;;;;;;;19.91;38.60;99888.28;5050964;28;20110;-64
2021/12/29 01:24:00;;;;;;;3.55;2.40;;;;;;;19.85;38.74;99890.94;5060866;28;20070;-64
2021/12/29 01:26:26;;;;;;;3.70;2.67;;;;;;;19.83;38.76;99901.72;5057146;28;20045;-64
2021/12/29 01:28:52;;;;;;;3.67;2.53;;;;;;;19.88;38.62;99914.31;5056513;28;20048;-64
2021/12/29 01:31:18;;;;;;;4.47;2.50;;;;;;;19.93;38.53;99927.75;5058716;28;20025;-64
2021/12/29 01:33:43;;;;;;;2.85;2.20;;;;;;;19.83;38.69;99925.50;5034507;28;20534;-64
2021/12/29 01:36:09;;;;;;;3.20;2.53;;;;;;;19.71;38.85;99932.38;5057114;28;20033;-64
2021/12/29 01:38:34;;;;;;;3.33;2.38;;;;;;;19.75;38.82;99930.97;5057930;28;20059;-64
2021/12/29 01:41:00;;;;;;;3.28;2.25;;;;;;;19.74;38.88;99945.19;5059536;28;20599;-63
2021/12/29 01:43:26;;;;;;;4.10;2.20;;;;;;;19.74;38.75;99954.94;5059022;28;20094;-66
2021/12/29 01:45:51;;;;;;;2.85;2.30;;;;;;;19.80;38.76;99948.88;5059335;28;20051;-63
2021/12/29 01:48:18;;;;;;;3.70;2.40;;;;;;;19.73;38.86;99962.03;5054625;28;20037;-63
2021/12/29 01:50:48;;;;;;;4.18;2.60;;;;;;;19.74;38.75;99970.78;5057466;28;20436;-64
2021/12/29 01:53:22;;;;;;;;;;;;;;;19.76;38.65;99992.56;5064945;28;20093;-63
2021/12/29 01:55:49;;;;;;;3.33;2.30;;;;;;;19.75;38.59;99977.69;5057241;28;19926;-64
2021/12/29 01:58:15;;;;;;;3.50;2.15;;;;;;;19.74;38.85;99994.56;5053588;28;20040;-64
2021/12/29 02:00:41;;;;;;;3.10;2.42;;;;;;;19.71;38.82;100006.34;5061591;28;20033;-66
2021/12/29 02:03:08;;;;;;;3.42;2.20;;;;;;;19.74;38.81;100010.41;5060249;28;20102;-64
2021/12/29 02:05:39;;;;;;;2.40;1.92;;;;;;;19.69;38.88;100008.34;5055049;28;20079;-64
2021/12/29 02:08:05;;;;;;;3.35;2.40;;;;;;;19.78;38.60;100009.00;5062746;28;21307;-63
2021/12/29 02:10:36;;;;;;;3.20;2.03;;;;;;;19.71;38.81;100014.25;5062202;28;20056;-63
2021/12/29 02:13:03;;;;;;;5.13;2.13;;;;;;;19.68;38.75;100014.66;5063932;28;20123;-64
2021/12/29 02:15:28;;;;;;;4.80;2.55;;;;;;;19.67;38.91;100020.13;5057682;28;20036;-64
2021/12/29 02:17:54;;;;;;;3.05;2.30;;;;;;;19.58;39.02;100022.97;5063308;28;20040;-64
2021/12/29 02:20:21;;;;;;;2.53;2.17;;;;;;;19.63;38.79;100026.84;5059677;28;20075;-64
2021/12/29 02:22:52;;;;;;;3.40;2.15;;;;;;;19.66;38.79;100023.78;5056852;28;20041;-64
2021/12/29 02:27:46;;;;;;;2.58;2.05;;;;;;;19.63;38.85;100045.31;5063276;28;20044;-63
2021/12/29 02:30:13;;;;;;;2.95;2.10;;;;;;;19.63;38.82;100042.69;5064099;28;20114;-65
2021/12/29 02:32:40;;;;;;;2.72;1.95;;;;;;;19.59;38.90;100048.38;5059854;28;20047;-63
2021/12/29 02:35:06;;;;;;;3.05;2.30;;;;;;;19.54;38.82;100042.84;5066141;28;20064;-64
2021/12/29 02:37:32;;;;;;;3.28;2.28;;;;;;;19.56;38.88;100059.28;5058275;28;20032;-63
2021/12/29 02:39:57;;;;;;;3.72;2.15;;;;;;;19.60;38.86;100060.56;5043962;28;20384;-63
2021/12/29 02:42:27;;;;;;;3.22;2.40;;;;;;;19.68;38.68;100061.38;5057992;28;20720;-63
2021/12/29 02:44:53;;;;;;;2.38;2.08;;;;;;;19.61;38.77;100064.00;5060973;28;20045;-63
2021/12/29 02:47:19;;;;;;;2.08;1.80;;;;;;;19.55;38.98;100065.59;5059454;28;20086;-64
2021/12/29 02:49:45;;;;;;;3.17;1.90;;;;;;;19.52;38.92;100067.78;5064394;28;20394;-64
2021/12/29 02:52:14;;;;;;;3.08;2.28;;;;;;;19.50;39.12;100062.69;5061948;28;20037;-64
2021/12/29 02:54:40;;;;;;;2.53;1.90;;;;;;;19.53;38.86;100062.31;5060599;28;20473;-64
2021/12/29 02:57:05;;;;;;;3.70;2.00;;;;;;;19.51;38.91;100066.16;5063213;28;20086;-63
2021/12/29 02:59:31;;;;;;;3.40;2.15;;;;;;;19.49;38.88;100057.63;5059757;28;20048;-64
2021/12/29 03:01:57;;;;;;;3.08;2.05;;;;;;;19.54;38.83;100066.59;5064078;28;20036;-63
2021/12/29 03:04:22;;;;;;;2.50;2.20;;;;;;;19.55;38.79;100067.41;5062088;28;20050;-63
2021/12/29 03:06:48;;;;;;;4.05;2.08;;;;;;;19.53;38.70;100064.13;5060057;28;20804;-63
2021/12/29 03:09:16;;;;;;;3.38;1.92;;;;;;;19.53;38.83;100058.84;5059577;28;20051;-63
2021/12/29 03:11:42;;;;;;;2.97;1.90;;;;;;;19.52;38.87;100073.88;5061695;28;20046;-63
2021/12/29 03:14:08;;;;;;;3.17;2.17;;;;;;;19.50;38.97;100075.91;5060478;28;20047;-63
2021/12/29 03:16:35;;;;;;;3.25;2.22;;;;;;;19.44;38.84;100071.41;5058562;28;20112;-63
2021/12/29 03:19:02;;;;;;;2.80;2.08;;;;;;;19.52;38.84;100079.16;5059396;28;20040;-63
2021/12/29 03:21:30;;;;;;;2.97;2.00;;;;;;;19.47;39.05;100088.69;5059048;28;20032;-63
2021/12/29 03:23:55;;;;;;;2.17;1.98;;;;;;;19.42;39.08;100097.19;5061448;28;20036;-66
2021/12/29 03:26:21;;;;;;;2.63;1.80;;;;;;;19.40;39.08;100116.88;5056652;28;20029;-65
2021/12/29 03:28:46;;;;;;;3.03;1.80;;;;;;;19.42;39.05;100122.78;5063098;28;20041;-63
2021/12/29 03:31:14;;;;;;;3.28;2.00;;;;;;;19.39;39.07;100129.28;5060282;28;20037;-64
2021/12/29 03:33:43;;;;;;;1.85;1.70;;;;;;;19.39;39.03;100134.56;5056138;28;20133;-64
2021/12/29 03:36:10;;;;;;;1.60;1.50;;;;;;;19.37;39.24;100144.47;5060395;28;20036;-63
2021/12/29 03:38:38;;;;;;;3.13;1.90;;;;;;;19.31;39.12;100138.13;5059677;28;20479;-63
2021/12/29 03:41:06;;;;;;;2.80;1.83;;;;;;;19.41;38.90;100144.91;5062451;28;20037;-64
2021/12/29 03:43:33;;;;;;;2.53;1.92;;;;;;;19.41;38.88;100145.72;5060554;28;20044;-64
2021/12/29 03:46:00;;;;;;;2.38;1.83;;;;;;;19.40;38.92;100138.00;5058587;28;20086;-64
2021/12/29 03:48:27;;;;;;;2.58;1.90;;;;;;;19.38;39.10;100140.00;5058093;28;20593;-63
2021/12/29 03:50:55;;;;;;;2.47;1.85;;;;;;;19.43;39.08;100143.72;5052253;28;20044;-64
2021/12/29 03:53:21;;;;;;;2.13;1.52;;;;;;;19.43;38.85;100140.25;5057503;28;20047;-64
2021/12/29 03:55:50;;;;;;;2.08;1.85;;;;;;;19.34;38.96;100147.50;5058533;28;20041;-63
2021/12/29 03:58:20;;;;;;;2.95;1.80;;;;;;;19.38;38.92;100151.38;5056828;28;20536;-63
2021/12/29 04:00:48;;;;;;;2.58;1.95;;;;;;;19.39;38.92;100144.28;5059719;28;20041;-63
2021/12/29 04:03:14;;;;;;;2.05;1.80;;;;;;;19.33;39.07;100151.16;5058474;28;20033;-64
2021/12/29 04:05:41;;;;;;;2.55;1.77;;;;;;;19.36;39.11;100155.22;5056566;28;20045;-64
2021/12/29 04:08:08;;;;;;;3.85;1.90;;;;;;;19.27;39.16;100168.56;5056583;28;20032;-64
2021/12/29 04:10:34;;;;;;;2.95;2.08;;;;;;;19.24;39.34;100168.16;5052242;28;20044;-64
2021/12/29 04:13:02;;;;;;;2.22;1.63;;;;;;;19.20;39.14;100166.88;5060603;28;20090;-64
2021/12/29 04:15:29;;;;;;;2.30;1.75;;;;;;;19.32;39.13;100181.19;5061217;28;20482;-64
2021/12/29 04:17:58;;;;;;;3.17;1.85;;;;;;;19.31;39.08;100183.03;5054636;28;20422;-63
2021/12/29 04:23:14;;;;;;;2.75;1.83;;;;;;;19.36;38.89;100187.72;5058803;28;20039;-64
2021/12/29 04:25:41;;;;;;;2.17;1.48;;;;;;;19.31;38.93;100196.22;5043431;28;20044;-64
2021/12/29 04:28:13;;;;;;;2.15;1.67;;;;;;;19.30;39.01;100194.59;5057634;28;20037;-64
2021/12/29 04:30:39;;;;;;;2.13;1.77;;;;;;;19.48;38.80;100202.03;5059599;28;20029;-64
2021/12/29 04:33:05;;;;;;;2.75;1.60;;;;;;;19.56;38.46;100201.91;5058284;28;20124;-65
2021/12/29 04:35:31;;;;;;;3.00;1.77;;;;;;;19.62;38.66;100210.91;5055858;28;20024;-64
2021/12/29 04:37:56;;;;;;;2.22;1.67;;;;;;;19.49;38.84;100213.41;5061854;28;20500;-64
2021/12/29 04:40:22;;;;;;;1.90;1.52;;;;;;;19.44;38.92;100207.91;5059700;28;20981;-64
2021/12/29 04:42:48;;;;;;;1.80;1.58;;;;;;;19.75;38.64;100220.72;5039048;28;20447;-63
2021/12/29 04:45:14;;;;;;;3.00;1.90;;;;;;;19.95;38.45;100224.31;5060784;28;20045;-64
2021/12/29 04:47:42;;;;;;;3.00;1.75;;;;;;;20.17;38.05;100238.25;5062115;28;20044;-64
2021/12/29 04:50:23;;;;;;;1.73;1.50;;;;;;;20.38;37.68;100243.44;5058122;28;20367;-64
2021/12/29 04:52:52;;;;;;;3.28;1.90;;;;;;;20.60;37.40;100240.69;5060149;28;20047;-64
2021/12/29 04:55:17;;;;;;;2.05;1.50;;;;;;;20.72;37.28;100239.94;5059798;28;20075;-63
2021/12/29 04:57:43;;;;;;;2.05;1.60;;;;;;;20.82;37.26;100234.22;5059122;28;20311;-64
2021/12/29 05:00:09;;;;;;;1.95;1.30;;;;;;;20.89;37.16;100240.38;5055174;28;20051;-64
2021/12/29 05:02:34;;;;;;;4.25;2.15;;;;;;;20.96;37.03;100243.03;5055514;28;20127;-64
2021/12/29 05:05:08;;;;;;;2.05;1.55;;;;;;;20.99;37.22;100255.84;5055041;28;20040;-64
2021/12/29 05:10:17;;;;;;;1.50;1.25;;;;;;;21.10;37.08;100256.09;5059570;28;20063;-64
2021/12/29 05:12:43;;;;;;;2.50;1.48;;;;;;;21.17;36.91;100264.03;5039076;28;20495;-64
2021/12/29 05:15:09;;;;;;;1.52;1.23;;;;;;;21.16;36.93;100270.34;5059629;28;20039;-64
2021/12/29 05:17:34;;;;;;;2.15;1.48;;;;;;;21.15;37.30;100278.47;5058621;28;20482;-64
2021/12/29 05:20:00;;;;;;;2.28;1.60;;;;;;;21.13;37.23;100268.91;5059138;28;20068;-64
2021/12/29 05:22:25;;;;;;;1.58;1.35;;;;;;;21.16;37.08;100270.34;5052270;28;20410;-63
2021/12/29 05:24:51;;;;;;;1.33;1.23;;;;;;;21.22;37.17;100272.19;5059013;28;20060;-64
2021/12/29 05:27:17;;;;;;;1.73;1.48;;;;;;;21.17;37.26;100277.25;5059221;28;20120;-64
2021/12/29 05:29:42;;;;;;;1.83;1.52;;;;;;;21.13;37.35;100284.78;5057007;28;20106;-65
2021/12/29 05:32:08;;;;;;;1.30;1.20;;;;;;;21.13;37.33;100289.28;5056854;28;20045;-64
2021/12/29 05:34:33;;;;;;;2.25;1.65;;;;;;;21.19;37.28;100293.78;5060272;28;20045;-65
2021/12/29 05:36:59;;;;;;;1.65;1.40;;;;;;;21.15;37.35;100297.00;5064014;28;20041;-64
2021/12/29 05:39:25;;;;;;;1.98;1.63;;;;;;;21.05;37.48;100308.81;5061550;28;20044;-64
2021/12/29 05:41:51;;;;;;;1.60;1.50;;;;;;;20.95;37.79;100307.56;5066291;28;20406;-64
2021/12/29 05:44:17;;;;;;;3.20;1.60;;;;;;;20.97;37.70;100316.94;5056093;28;20521;-64
2021/12/29 05:46:43;;;;;;;2.45;1.60;;;;;;;20.94;37.80;100327.91;5053891;28;20343;-64
2021/12/29 05:49:09;;;;;;;1.85;1.27;;;;;;;20.99;37.59;100314.09;5060905;28;20596;-63
2021/12/29 05:51:35;;;;;;;2.40;1.17;;;;;;;21.08;37.43;100321.66;5056632;28;20051;-64
2021/12/29 05:54:00;;;;;;;1.90;1.40;;;;;;;21.03;37.68;100323.28;5063417;28;20033;-64
2021/12/29 05:56:26;;;;;;;1.10;1.05;;;;;;;21.07;37.58;100333.25;5058945;28;20032;-64
2021/12/29 05:58:52;;;;;;;1.35;1.00;;;;;;;21.20;37.31;100343.09;5063842;28;20040;-63
2021/12/29 06:01:17;;;;;;;1.92;1.23;;;;;;;21.33;37.08;100335.16;5053861;28;20028;-64
2021/12/29 06:03:43;;;;;;;1.75;1.45;;;;;;;21.26;37.12;100337.00;5056409;28;20083;-64
2021/12/29 06:06:09;;;;;;;1.83;1.27;;;;;;;21.29;36.98;100341.09;5060604;28;20502;-64
2021/12/29 06:08:35;;;;;;;1.25;1.10;;;;;;;21.32;37.08;100344.13;5064067;28;20062;-64
2021/12/29 06:11:01;;;;;;;1.33;1.10;;;;;;;21.35;36.99;100345.56;5058650;28;20029;-64
2021/12/29 06:13:27;;;;;;;2.15;1.20;;;;;;;21.36;36.89;100342.75;5060234;28;20098;-64
2021/12/29 06:15:52;;;;;;;1.77;1.10;;;;;;;21.33;37.02;100342.31;5058003;28;20049;-63
2021/12/29 06:18:18;;;;;;;3.28;1.10;;;;;;;21.39;37.21;100347.63;5059831;28;20047;-64
2021/12/29 06:20:44;;;;;;;1.95;1.40;;;;;;;21.42;37.14;100351.69;5058519;28;20033;-64
2021/12/29 06:23:12;;;;;;;1.58;1.38;;;;;;;21.41;37.17;100356.19;5061913;28;20040;-64
2021/12/29 06:25:39;;;;;;;1.35;1.20;;;;;;;21.32;37.14;100361.84;5057663;28;20044;-64
2021/12/29 06:28:04;;;;;;;1.02;0.93;;;;;;;21.17;37.39;100340.81;5061992;28;20482;-63
2021/12/29 06:30:30;;;;;;;2.03;1.17;;;;;;;21.19;37.70;100362.63;5063223;28;20047;-64
2021/12/29 06:32:56;;;;;;;2.47;1.30;;;;;;;21.20;37.55;100376.69;5060634;28;20036;-64
2021/12/29 06:35:22;;;;;;;1.88;1.38;;;;;;;21.25;37.45;100379.56;5052854;28;20490;-64
2021/12/29 06:37:48;;;;;;;1.65;1.27;;;;;;;21.19;37.48;100389.13;5062273;28;20052;-64
2021/12/29 06:40:15;;;;;;;1.20;1.08;;;;;;;21.21;37.31;100392.38;5063741;28;20215;-64
2021/12/29 06:42:41;;;;;;;2.90;1.38;;;;;;;21.25;37.51;100406.06;5058445;28;20035;-64
2021/12/29 06:45:07;;;;;;;1.75;1.08;;;;;;;21.35;37.46;100399.34;5061233;28;20094;-63
2021/12/29 06:47:33;;;;;;;1.60;1.00;;;;;;;21.40;37.03;100404.88;5063113;28;20041;-63
2021/12/29 06:49:59;;;;;;;2.13;1.30;;;;;;;21.42;37.18;100400.19;5061275;28;20045;-63
2021/12/29 06:52:24;;;;;;;1.70;1.00;;;;;;;21.49;37.02;100409.97;5044091;28;20048;-64
2021/12/29 06:54:50;;;;;;;1.00;0.90;;;;;;;21.57;37.03;100402.69;5057755;28;20040;-64
2021/12/29 06:57:16;;;;;;;1.08;0.98;;;;;;;21.56;36.86;100408.19;5061012;28;20064;-64
2021/12/29 06:59:42;;;;;;;2.22;1.30;;;;;;;21.58;37.00;100403.50;5055793;28;20048;-64
2021/12/29 07:02:09;;;;;;;1.95;1.05;;;;;;;21.61;36.78;100409.19;5061227;28;20063;-64
2021/12/29 07:04:35;;;;;;;1.35;1.10;;;;;;;21.64;36.79;100418.56;5057262;28;20041;-64
2021/12/29 07:07:00;;;;;;;2.00;1.40;;;;;;;21.64;36.71;100422.03;5056873;28;20079;-64
2021/12/29 07:09:26;;;;;;;0.80;0.80;;;;;;;21.60;36.85;100427.94;5058333;28;20040;-64
2021/12/29 07:11:52;;;;;;;1.42;1.33;;;;;;;21.47;37.37;100430.56;5056425;28;20032;-64
2021/12/29 07:14:20;;;;;;;1.65;1.00;;;;;;;21.56;36.89;100434.69;5038825;28;20475;-64
2021/12/29 07:16:47;;;;;;;1.95;1.30;;;;;;;21.44;37.18;100434.44;5054352;28;20032;-64
2021/12/29 07:19:13;;;;;;;0.85;0.85;;;;;;;21.38;37.30;100436.06;5058676;28;20437;-65
2021/12/29 07:21:39;;;;;;;1.55;1.10;;;;;;;21.40;37.28;100443.81;5054710;28;20040;-64
2021/12/29 07:24:06;;;;;;;1.48;1.30;;;;;;;21.37;37.26;100439.72;5057089;28;20037;-64
2021/12/29 07:26:33;;;;;;;2.33;1.05;;;;;;;21.34;37.49;100455.97;5057313;28;20025;-64
2021/12/29 07:28:59;;;;;;;1.40;1.30;;;;;;;21.38;37.41;100459.91;5057484;28;20091;-64
2021/12/29 07:31:25;;;;;;;1.10;1.00;;;;;;;21.43;37.25;100461.94;5056240;28;20035;-64
2021/12/29 07:33:51;;;;;;;2.78;1.30;;;;;;;21.46;36.98;100464.19;5052585;28;20158;-64
2021/12/29 07:36:17;;;;;;;1.13;1.02;;;;;;;21.45;37.05;100472.34;5059041;28;20044;-64
2021/12/29 07:38:44;;;;;;;1.58;0.95;;;;;;;21.48;37.20;100463.97;5057860;28;20158;-64
2021/12/29 07:41:10;;;;;;;2.35;1.25;;;;;;;21.44;37.12;100468.88;5056967;28;20037;-64
2021/12/29 07:43:37;;;;;;;1.75;1.20;;;;;;;21.42;37.09;100462.97;5058894;28;20028;-64
2021/12/29 07:46:03;;;;;;;1.85;1.25;;;;;;;21.36;37.59;100469.03;5061722;28;20719;-65
2021/12/29 07:48:30;;;;;;;1.77;1.35;;;;;;;21.31;37.37;100461.69;5060775;28;20098;-64
2021/12/29 07:50:57;;;;;;;1.80;1.30;;;;;;;21.34;37.45;100463.13;5061930;28;20478;-64
2021/12/29 07:53:23;;;;;;;2.50;1.05;;;;;;;21.32;37.39;100476.56;5056174;28;20901;-63
2021/12/29 07:55:48;;;;;;;1.23;1.13;;;;;;;21.36;37.30;100477.81;5058155;28;20028;-63
2021/12/29 07:58:14;;;;;;;1.42;1.20;;;;;;;21.37;37.34;100483.94;5054229;28;20372;-64
2021/12/29 08:00:41;;;;;;;1.10;1.00;;;;;;;21.32;37.40;100483.69;5060057;28;20052;-64
2021/12/29 08:03:07;;;;;;;1.15;1.05;;;;;;;21.28;37.57;100483.28;5058690;28;20032;-64
2021/12/29 08:05:32;;;;;;;1.40;1.05;;;;;;;21.21;37.73;100486.88;5061485;28;20097;-63
2021/12/29 08:07:58;;;;;;;2.65;1.58;;;;;;;21.27;37.50;100486.13;5052059;28;20033;-64
2021/12/29 08:10:24;;;;;;;2.50;1.50;;;;;;;21.24;37.56;100489.13;5053255;28;20052;-63
2021/12/29 08:12:49;;;;;;;1.85;1.40;;;;;;;21.18;37.71;100493.38;5058025;28;20069;-64
2021/12/29 08:15:15;;;;;;;2.33;1.27;;;;;;;21.17;37.90;100498.84;5053258;28;20032;-64
2021/12/29 08:17:41;;;;;;;1.30;1.20;;;;;;;21.16;37.69;100500.69;5055702;28;20040;-64
2021/12/29 08:20:08;;;;;;;1.60;1.35;;;;;;;21.19;37.91;100504.81;5056839;28;20104;-64
2021/12/29 08:22:34;;;;;;;1.65;1.15;;;;;;;21.24;37.64;100513.81;5056153;28;20456;-64
2021/12/29 08:25:00;;;;;;;2.92;1.38;;;;;;;21.30;37.46;100510.38;5025879;28;20148;-64
2021/12/29 08:27:26;;;;;;;2.05;1.40;;;;;;;21.28;37.50;100508.94;5055800;28;20041;-64
2021/12/29 08:29:52;;;;;;;0.95;0.95;;;;;;;21.29;37.47;100514.03;5056609;28;20089;-63
2021/12/29 08:32:18;;;;;;;1.95;1.25;;;;;;;21.27;37.88;100516.06;5055703;28;20475;-63
2021/12/29 08:34:44;;;;;;;1.98;1.50;;;;;;;21.32;37.59;100526.88;5058274;28;20060;-63
2021/12/29 08:37:09;;;;;;;1.20;1.10;;;;;;;21.27;37.69;100521.38;5045304;28;20112;-63
2021/12/29 08:39:35;;;;;;;1.55;1.25;;;;;;;21.24;37.65;100527.06;5054839;28;20530;-63
2021/12/29 08:42:00;;;;;;;3.40;2.15;;;;;;;21.16;37.79;100527.16;5057032;28;20029;-63
2021/12/29 08:44:26;;;;;;;2.78;1.48;;;;;;;20.96;37.68;100500.59;5055809;28;20086;-62
2021/12/29 08:46:52;;;;;;;2.15;1.50;;;;;;;21.15;38.68;100530.84;5058402;28;20036;-61
2021/12/29 08:49:17;;;;;;;1.38;1.27;;;;;;;21.09;38.12;100523.69;5057361;28;20111;-61
2021/12/29 08:51:43;;;;;;;1.70;1.30;;;;;;;21.16;38.05;100526.34;5058563;28;20821;-62
2021/12/29 08:54:09;;;;;;;2.85;1.35;;;;;;;21.15;37.86;100530.00;5058198;28;20102;-61
2021/12/29 08:56:35;;;;;;;2.17;1.50;;;;;;;21.07;37.96;100531.00;5055373;28;20079;-61
2021/12/29 08:59:02;;;;;;;1.42;1.25;;;;;;;21.12;37.96;100532.03;5053346;28;20033;-61
2021/12/29 09:01:27;;;;;;;1.17;1.10;;;;;;;21.07;38.01;100539.75;5060574;28;20110;-61
2021/12/29 09:03:53;;;;;;;2.25;1.38;;;;;;;20.99;37.97;100537.25;5059216;28;20029;-61
2021/12/29 09:06:20;;;;;;;2.25;1.42;;;;;;;21.02;37.93;100542.19;5058686;28;20037;-62
2021/12/29 09:08:47;;;;;;;2.75;1.52;;;;;;;21.02;37.92;100547.47;5063242;28;20114;-61
2021/12/29 09:11:12;;;;;;;1.42;1.33;;;;;;;20.86;38.14;100542.47;5060121;28;20043;-63
2021/12/29 09:13:39;;;;;;;2.00;1.33;;;;;;;20.92;38.17;100546.16;5058483;28;20045;-62
2021/12/29 09:16:06;;;;;;;1.50;1.35;;;;;;;20.85;38.07;100545.31;5041216;28;20051;-62
2021/12/29 09:18:33;;;;;;;1.98;1.33;;;;;;;20.76;38.40;100542.00;5063078;28;20166;-62
2021/12/29 09:21:11;;;;;;;1.33;1.23;;;;;;;20.90;38.18;100546.38;5058923;28;20538;-62
2021/12/29 09:23:37;;;;;;;1.98;1.58;;;;;;;20.80;38.13;100552.00;5053803;28;20498;-61
2021/12/29 09:26:03;;;;;;;1.77;1.52;;;;;;;20.80;38.35;100552.00;5056392;28;20107;-62
2021/12/29 09:28:30;;;;;;;3.65;1.50;;;;;;;20.83;38.35;100556.09;5060918;28;20032;-61
2021/12/29 09:30:56;;;;;;;1.63;1.33;;;;;;;20.90;38.26;100559.59;5059685;28;20119;-62
2021/12/29 09:33:22;;;;;;;1.67;1.40;;;;;;;21.03;37.98;100553.59;5055765;28;20052;-61
2021/12/29 09:35:51;;;;;;;3.05;1.48;;;;;;;21.11;37.75;100558.72;5065513;28;21419;-62
2021/12/29 09:38:19;;;;;;;3.03;1.50;;;;;;;21.14;37.75;100566.25;5064740;28;20131;-62
2021/12/29 09:40:47;;;;;;;1.90;1.40;;;;;;;21.31;37.69;100567.63;5065646;28;20036;-62
2021/12/29 09:43:14;;;;;;;2.22;2.03;;;;;;;21.45;37.24;100555.28;5064734;28;20059;-62
2021/12/29 09:45:41;;;;;;;2.03;1.40;;;;;;;21.51;37.13;100558.94;5055176;28;20077;-62
2021/12/29 09:48:08;;;;;;;2.25;1.30;;;;;;;21.62;37.23;100558.41;5063632;28;20701;-61
2021/12/29 09:50:35;;;;;;;1.38;1.15;;;;;;;21.76;36.75;100567.22;5062404;28;20040;-62
2021/12/29 09:53:01;;;;;;;3.08;1.52;;;;;;;21.84;37.11;100561.72;5058826;28;20063;-61
2021/12/29 09:55:27;;;;;;;2.55;1.58;;;;;;;21.88;36.88;100557.66;5059624;28;20076;-61
2021/12/29 09:57:56;;;;;;;2.85;1.50;;;;;;;21.91;37.07;100544.03;5053718;28;20479;-62
2021/12/29 10:00:26;;;;;;;3.90;1.70;;;;;;;21.85;36.94;100542.16;5064455;28;20034;-61
2021/12/29 10:02:52;;;;;;;;;;;;;;;21.83;37.21;100547.66;5060534;28;20562;-62
2021/12/29 10:05:18;;;;;;;2.83;1.55;;;;;;;21.78;37.13;100536.84;5055354;28;19920;-61
2021/12/29 10:07:44;;;;;;;2.17;1.75;;;;;;;21.82;37.14;100543.38;5053310;28;20043;-62
2021/12/29 10:10:20;;;;;;;2.38;1.30;;;;;;;21.75;37.53;100539.09;5061145;28;20414;-62
2021/12/29 10:12:47;;;;;;;2.72;1.77;;;;;;;21.76;37.27;100552.13;5046462;28;20436;-61
2021/12/29 10:15:13;;;;;;;2.95;1.50;;;;;;;21.69;37.34;100553.94;5059501;28;20040;-62
2021/12/29 10:17:39;;;;;;;1.70;1.40;;;;;;;21.63;37.48;100542.31;5044218;28;20529;-61
2021/12/29 10:20:08;;;;;;;2.90;1.70;;;;;;;21.62;37.49;100534.56;5064289;28;20040;-62
2021/12/29 10:22:34;;;;;;;4.93;2.13;;;;;;;21.59;37.69;100540.25;5056926;28;20052;-61
2021/12/29 10:25:08;;;;;;;2.05;1.52;;;;;;;21.58;37.75;100541.28;5064910;28;20314;-61
2021/12/29 10:27:34;;;;;;;1.65;1.40;;;;;;;21.48;37.86;100536.31;5057113;28;20056;-61
2021/12/29 10:30:02;;;;;;;3.03;1.77;;;;;;;21.46;37.72;100533.06;5053443;28;20037;-62
2021/12/29 10:32:27;;;;;;;2.55;2.05;;;;;;;21.37;37.93;100550.16;5060748;28;20166;-62
2021/12/29 10:34:54;;;;;;;2.42;1.70;;;;;;;21.35;37.76;100557.44;5063743;28;20044;-61
2021/12/29 10:37:23;;;;;;;2.17;1.60;;;;;;;21.30;38.07;100560.69;5056726;28;20885;-62
2021/12/29 10:39:52;;;;;;;2.10;1.90;;;;;;;21.31;38.05;100557.03;5061561;28;20036;-62
2021/12/29 10:42:22;;;;;;;1.80;1.67;;;;;;;21.36;37.75;100551.97;5059110;28;20024;-62
2021/12/29 10:44:52;;;;;;;;;;;;;;;21.35;37.79;100552.97;5061671;28;20135;-61
2021/12/29 10:47:27;;;;;;;2.50;1.65;;;;;;;21.39;37.69;100556.06;5060652;28;19912;-62
2021/12/29 10:50:03;;;;;;;1.88;1.70;;;;;;;21.36;37.72;100553.78;5060161;28;20506;-61
2021/12/29 10:52:36;;;;;;;2.60;1.50;;;;;;;21.33;37.61;100552.34;5056982;28;20482;-61
2021/12/29 10:55:15;;;;;;;1.42;1.33;;;;;;;21.28;37.79;100549.47;5060569;28;20503;-62
2021/12/29 10:57:42;;;;;;;2.55;1.73;;;;;;;21.33;37.57;100554.19;5055847;28;20047;-61
2021/12/29 11:00:15;;;;;;;2.17;1.83;;;;;;;21.29;37.73;100555.59;5050372;28;20586;-63
2021/12/29 11:02:42;;;;;;;2.58;1.63;;;;;;;21.33;37.80;100556.81;5062764;28;20045;-62
2021/12/29 11:05:10;;;;;;;1.52;1.42;;;;;;;21.30;37.64;100549.28;5057873;28;20068;-61
2021/12/29 11:07:37;;;;;;;1.63;1.52;;;;;;;21.35;37.61;100555.63;5054470;28;20223;-62
2021/12/29 11:10:16;;;;;;;1.95;1.75;;;;;;;21.19;37.67;100561.22;5059768;28;20373;-62
2021/12/29 11:12:49;;;;;;;1.45;1.35;;;;;;;21.18;37.82;100545.50;5060042;28;20082;-62
2021/12/29 11:15:29;;;;;;;1.58;1.40;;;;;;;21.27;37.64;100554.97;5047407;28;20036;-62
2021/12/29 11:17:59;;;;;;;1.58;1.48;;;;;;;21.37;37.40;100558.09;5053832;28;20471;-62
2021/12/29 11:20:28;;;;;;;1.52;1.42;;;;;;;21.25;37.82;100559.66;5062855;28;20059;-61
2021/12/29 11:23:15;;;;;;;1.75;1.50;;;;;;;21.22;37.83;100562.66;5056702;28;22164;-62
2021/12/29 11:25:42;;;;;;;2.78;1.70;;;;;;;21.18;37.66;100559.56;5060252;28;20582;-61
2021/12/29 11:28:29;;;;;;;2.75;1.70;;;;;;;21.24;37.64;100574.72;5056648;28;20113;-62
2021/12/29 11:30:58;;;;;;;1.60;1.50;;;;;;;21.19;37.74;100573.66;5060681;28;20796;-62
2021/12/29 11:33:28;;;;;;;2.03;1.63;;;;;;;21.21;37.67;100574.28;5059676;28;20051;-61
2021/12/29 11:35:54;;;;;;;2.00;1.60;;;;;;;21.22;37.68;100573.25;5045526;28;20147;-61
2021/12/29 11:38:22;;;;;;;1.55;1.42;;;;;;;21.19;37.81;100585.06;5062375;28;20093;-62